createdAt,value
2023-05-24T00:00:13.287Z,99804.84
2023-05-24T00:02:44.054Z,99810.06
2023-05-24T00:05:11.435Z,99810.06
2023-05-24T00:07:38.523Z,99809.56
2023-05-24T00:10:06.397Z,99806.94
2023-05-24T00:12:34.297Z,99805.63
2023-05-24T00:15:01.223Z,99803.59
2023-05-24T00:17:31.392Z,99808.06
2023-05-24T00:19:58.300Z,99811.91
2023-05-24T00:22:25.274Z,99803.50
2023-05-24T00:24:52.492Z,99807.31
2023-05-24T00:27:19.704Z,99806.72
2023-05-24T00:29:46.686Z,99800.41
2023-05-24T00:32:13.724Z,99802.94
2023-05-24T00:34:40.728Z,99801.13
2023-05-24T00:37:07.733Z,99804.06
2023-05-24T00:39:34.621Z,99809.47
2023-05-24T00:42:02.218Z,99809.66
2023-05-24T00:44:29.701Z,99804.91
2023-05-24T00:46:56.668Z,99815.13
2023-05-24T00:49:24.153Z,99818.56
2023-05-24T00:51:52.981Z,99819.38
2023-05-24T00:54:20.882Z,99812.22
2023-05-24T00:56:49.279Z,99812.72
2023-05-24T00:59:16.265Z,99816.38
2023-05-24T01:01:46.993Z,99813.22
2023-05-24T01:04:14.913Z,99828.94
2023-05-24T01:06:59.360Z,99819.28
2023-05-24T01:09:46.012Z,99823.63
2023-05-24T01:12:22.641Z,99830.13
2023-05-24T01:15:05.157Z,99833.63
2023-05-24T01:18:07.941Z,99846.41
2023-05-24T01:20:38.833Z,99846.00
2023-05-24T01:23:15.014Z,99853.38
2023-05-24T01:26:29.318Z,99846.63
2023-05-24T01:28:56.626Z,99848.06
2023-05-24T01:31:24.063Z,99852.72
2023-05-24T01:33:51.008Z,99853.69
2023-05-24T01:36:20.114Z,99848.81
2023-05-24T01:38:48.118Z,99855.56
2023-05-24T01:41:31.212Z,99857.38
2023-05-24T01:44:23.478Z,99855.63
2023-05-24T01:47:02.863Z,99857.22
2023-05-24T01:49:37.998Z,99854.69
2023-05-24T01:52:11.567Z,99855.22
2023-05-24T01:54:42.687Z,99849.13
2023-05-24T01:57:11.786Z,99842.00
2023-05-24T01:59:43.438Z,99837.16
2023-05-24T02:02:12.260Z,99846.28
2023-05-24T02:04:40.846Z,99845.97
2023-05-24T02:07:07.900Z,99849.59
2023-05-24T02:09:34.856Z,99846.19
2023-05-24T02:12:02.364Z,99848.50
2023-05-24T02:14:29.723Z,99838.84
2023-05-24T02:16:59.399Z,99832.56
2023-05-24T02:19:27.029Z,99838.53
2023-05-24T02:21:54.601Z,99832.75
2023-05-24T02:24:23.363Z,99840.59
2023-05-24T02:26:50.192Z,99827.28
2023-05-24T02:29:17.264Z,99841.16
2023-05-24T02:31:44.119Z,99838.03
2023-05-24T02:34:10.917Z,99841.44
2023-05-24T02:36:37.839Z,99851.13
2023-05-24T02:39:05.073Z,99842.19
2023-05-24T02:41:32.049Z,99843.22
2023-05-24T02:43:58.910Z,99850.34
2023-05-24T02:46:25.767Z,99850.91
2023-05-24T02:48:52.620Z,99855.88
2023-05-24T02:51:19.551Z,99858.03
2023-05-24T02:53:47.189Z,99866.13
2023-05-24T02:56:14.109Z,99866.34
2023-05-24T02:58:41.797Z,99865.31
2023-05-24T03:01:08.947Z,99873.59
2023-05-24T03:03:36.716Z,99873.34
2023-05-24T03:06:08.389Z,99877.28
2023-05-24T03:08:37.418Z,99885.63
2023-05-24T03:11:05.303Z,99872.28
2023-05-24T03:13:32.201Z,99880.94
2023-05-24T03:15:59.285Z,99887.53
2023-05-24T03:18:26.370Z,99894.03
2023-05-24T03:20:54.347Z,99907.84
2023-05-24T03:23:21.171Z,99896.41
2023-05-24T03:25:48.974Z,99896.88
2023-05-24T03:28:16.066Z,99895.81
2023-05-24T03:30:44.199Z,99892.97
2023-05-24T03:33:11.396Z,99902.72
2023-05-24T03:35:38.234Z,99901.78
2023-05-24T03:38:05.185Z,99913.06
2023-05-24T03:40:34.577Z,99914.16
2023-05-24T03:43:07.395Z,99916.53
2023-05-24T03:45:48.288Z,99914.44
2023-05-24T03:48:15.653Z,99919.09
2023-05-24T03:50:42.945Z,99916.94
2023-05-24T03:53:09.983Z,99909.63
2023-05-24T03:55:38.750Z,99921.13
2023-05-24T03:58:07.951Z,99919.34
2023-05-24T04:00:36.353Z,99922.38
2023-05-24T04:03:03.502Z,99914.53
2023-05-24T04:05:30.523Z,99918.63
2023-05-24T04:07:57.480Z,99928.41
2023-05-24T04:10:24.384Z,99924.59
2023-05-24T04:12:51.369Z,99936.22
2023-05-24T04:15:18.461Z,99937.84
2023-05-24T04:17:46.586Z,99946.38
2023-05-24T04:20:13.970Z,99958.50
2023-05-24T04:22:41.480Z,99962.50
2023-05-24T04:25:10.085Z,99960.25
2023-05-24T04:27:37.423Z,99965.06
2023-05-24T04:30:05.672Z,99970.59
2023-05-24T04:32:32.934Z,99965.16
2023-05-24T04:35:02.308Z,99975.16
2023-05-24T04:37:31.849Z,99988.78
2023-05-24T04:39:58.833Z,99984.13
2023-05-24T04:42:27.410Z,99980.75
2023-05-24T04:44:54.247Z,99974.06
2023-05-24T04:47:24.156Z,99983.00
2023-05-24T04:49:51.264Z,99983.84
2023-05-24T04:52:18.719Z,99987.16
2023-05-24T04:54:47.145Z,99987.97
2023-05-24T04:57:14.019Z,99980.91
2023-05-24T04:59:40.845Z,99993.75
2023-05-24T05:02:08.436Z,99992.38
2023-05-24T05:04:35.485Z,99988.28
2023-05-24T05:07:03.786Z,99985.25
2023-05-24T05:09:30.884Z,99986.22
2023-05-24T05:11:58.422Z,99989.44
2023-05-24T05:14:26.165Z,99990.56
2023-05-24T05:16:53.130Z,100000.50
2023-05-24T05:19:20.217Z,100000.81
2023-05-24T05:21:47.153Z,99996.69
2023-05-24T05:24:17.832Z,100003.03
2023-05-24T05:26:45.256Z,100002.69
2023-05-24T05:29:12.127Z,100005.81
2023-05-24T05:31:39.864Z,100001.00
2023-05-24T05:34:10.067Z,100003.34
2023-05-24T05:36:41.111Z,100016.13
2023-05-24T05:39:11.696Z,100005.00
2023-05-24T05:41:40.053Z,100006.09
2023-05-24T05:44:07.264Z,100018.41
2023-05-24T05:46:34.171Z,100014.22
2023-05-24T05:49:01.270Z,100017.38
2023-05-24T05:51:28.784Z,100021.91
2023-05-24T05:53:55.895Z,100019.69
2023-05-24T05:56:22.754Z,100018.53
2023-05-24T05:58:49.717Z,100025.66
2023-05-24T06:01:17.029Z,100032.59
2023-05-24T06:03:44.824Z,100032.97
2023-05-24T06:06:11.999Z,100032.53
2023-05-24T06:08:40.940Z,100042.88
2023-05-24T06:11:07.845Z,100038.44
2023-05-24T06:13:34.738Z,100039.22
2023-05-24T06:16:01.755Z,100037.91
2023-05-24T06:18:30.632Z,100047.22
2023-05-24T06:20:57.684Z,100053.50
2023-05-24T06:23:24.581Z,100056.94
2023-05-24T06:25:51.451Z,100057.50
2023-05-24T06:28:20.877Z,100042.81
2023-05-24T06:30:48.361Z,100044.69
2023-05-24T06:33:16.863Z,100048.50
2023-05-24T06:35:43.952Z,100053.28
2023-05-24T06:38:10.996Z,100056.38
2023-05-24T06:40:38.378Z,100057.09
2023-05-24T06:43:06.001Z,100056.34
2023-05-24T06:45:33.617Z,100047.97
2023-05-24T06:48:00.642Z,100054.84
2023-05-24T06:50:27.696Z,100060.88
2023-05-24T06:52:54.504Z,100062.56
2023-05-24T06:55:21.639Z,100072.22
2023-05-24T06:57:48.512Z,100063.97
2023-05-24T07:00:15.764Z,100068.13
2023-05-24T07:02:43.308Z,100067.84
2023-05-24T07:05:13.399Z,100074.66
2023-05-24T07:07:41.266Z,100071.13
2023-05-24T07:10:09.162Z,100068.47
2023-05-24T07:12:40.541Z,100081.00
2023-05-24T07:15:08.787Z,100078.19
2023-05-24T07:17:35.948Z,100079.75
2023-05-24T07:20:03.199Z,100094.97
2023-05-24T07:22:32.830Z,100082.56
2023-05-24T07:24:59.661Z,100087.88
2023-05-24T07:27:26.530Z,100083.28
2023-05-24T07:29:53.413Z,100082.41
2023-05-24T07:32:20.342Z,100081.25
2023-05-24T07:34:47.342Z,100085.84
2023-05-24T07:37:14.283Z,100081.63
2023-05-24T07:39:41.170Z,100080.25
2023-05-24T07:42:08.084Z,100082.78
2023-05-24T07:44:35.425Z,100075.69
2023-05-24T07:47:03.058Z,100082.31
2023-05-24T07:49:30.082Z,100089.25
2023-05-24T07:51:59.628Z,100081.97
2023-05-24T07:54:27.022Z,100090.44
2023-05-24T07:56:57.753Z,100085.91
2023-05-24T07:59:24.771Z,100089.25
2023-05-24T08:01:52.740Z,100081.25
2023-05-24T08:04:21.705Z,100083.16
2023-05-24T08:06:48.585Z,100081.88
2023-05-24T08:09:15.470Z,100082.06
2023-05-24T08:11:42.597Z,100071.44
2023-05-24T08:14:09.882Z,100071.66
2023-05-24T08:16:36.802Z,100062.84
2023-05-24T08:19:03.801Z,100068.66
2023-05-24T08:21:32.129Z,100059.59
2023-05-24T08:24:00.118Z,100057.13
2023-05-24T08:26:27.209Z,100054.34
2023-05-24T08:28:54.899Z,100057.00
2023-05-24T08:31:22.384Z,100043.03
2023-05-24T08:33:51.160Z,100036.00
2023-05-24T08:36:18.775Z,100031.94
2023-05-24T08:38:46.933Z,100029.44
2023-05-24T08:41:13.810Z,100048.91
2023-05-24T08:44:38.884Z,100049.41
2023-05-24T08:47:52.814Z,100068.56
2023-05-24T08:50:20.521Z,100079.88
2023-05-24T08:52:47.994Z,100081.56
2023-05-24T08:55:15.782Z,100088.56
2023-05-24T08:57:44.865Z,100083.91
2023-05-24T09:00:13.107Z,100092.03
2023-05-24T09:02:42.335Z,100086.03
2023-05-24T09:05:12.471Z,100094.91
2023-05-24T09:07:40.206Z,100099.97
2023-05-24T09:10:09.475Z,100102.81
2023-05-24T09:12:39.511Z,100109.53
2023-05-24T09:15:08.203Z,100103.06
2023-05-24T09:17:36.951Z,100108.81
2023-05-24T09:20:09.046Z,100099.91
2023-05-24T09:22:40.851Z,100104.22
2023-05-24T09:25:09.912Z,100108.09
2023-05-24T09:27:37.719Z,100120.53
2023-05-24T09:30:08.887Z,100122.09
2023-05-24T09:32:36.054Z,100121.72
2023-05-24T09:35:03.167Z,100127.94
2023-05-24T09:37:33.006Z,100123.19
2023-05-24T09:40:00.370Z,100121.38
2023-05-24T09:42:28.940Z,100120.84
2023-05-24T09:45:08.972Z,100120.84
2023-05-24T09:47:37.739Z,100119.78
2023-05-24T09:50:07.088Z,100114.31
2023-05-24T09:52:39.177Z,100119.50
2023-05-24T09:55:16.737Z,100119.91
2023-05-24T09:58:04.388Z,100120.75
2023-05-24T10:00:40.256Z,100113.59
2023-05-24T10:03:11.181Z,100128.06
2023-05-24T10:05:44.742Z,100124.69
2023-05-24T10:08:14.605Z,100133.47
2023-05-24T10:10:44.121Z,100122.88
2023-05-24T10:13:12.859Z,100128.16
2023-05-24T10:15:39.924Z,100123.16
2023-05-24T10:18:10.671Z,100125.47
2023-05-24T10:20:41.656Z,100120.19
2023-05-24T10:23:10.949Z,100123.41
2023-05-24T10:25:42.047Z,100124.53
2023-05-24T10:28:13.493Z,100119.63
2023-05-24T10:31:03.384Z,100119.94
2023-05-24T10:33:32.520Z,100116.25
2023-05-24T10:35:59.870Z,100120.63
2023-05-24T10:38:26.891Z,100117.78
2023-05-24T10:40:54.060Z,100116.53
2023-05-24T10:43:22.783Z,100106.75
2023-05-24T10:45:51.267Z,100109.63
2023-05-24T10:48:24.337Z,100120.03
2023-05-24T10:50:51.251Z,100123.41
2023-05-24T10:53:20.279Z,100118.59
2023-05-24T10:55:53.220Z,100105.66
2023-05-24T10:58:20.966Z,100116.84
2023-05-24T11:00:51.419Z,100114.09
2023-05-24T11:03:24.620Z,100110.78
2023-05-24T11:05:54.663Z,100106.91
2023-05-24T11:08:31.945Z,100104.41
2023-05-24T11:11:24.611Z,100104.66
2023-05-24T11:13:59.707Z,100097.34
2023-05-24T11:16:40.188Z,100096.34
2023-05-24T11:19:30.748Z,100103.34
2023-05-24T11:21:59.172Z,100106.03
2023-05-24T11:24:27.648Z,100094.00
2023-05-24T11:26:54.986Z,100096.66
2023-05-24T11:29:23.147Z,100089.56
2023-05-24T11:32:08.015Z,100094.31
2023-05-24T11:34:35.195Z,100091.41
2023-05-24T11:37:03.449Z,100090.91
2023-05-24T11:39:31.946Z,100081.41
2023-05-24T11:41:59.551Z,100090.91
2023-05-24T11:44:28.059Z,100084.31
2023-05-24T11:46:59.551Z,100084.06
2023-05-24T11:49:26.929Z,100083.19
2023-05-24T11:51:58.105Z,100088.19
2023-05-24T11:54:26.197Z,100088.75
2023-05-24T11:56:54.401Z,100087.19
2023-05-24T11:59:26.610Z,100083.50
2023-05-24T12:02:06.666Z,100088.78
2023-05-24T12:04:34.951Z,100075.34
2023-05-24T12:07:03.162Z,100086.16
2023-05-24T12:09:30.702Z,100080.84
2023-05-24T12:11:58.833Z,100087.69
2023-05-24T12:14:31.274Z,100097.69
2023-05-24T12:16:59.168Z,100082.13
2023-05-24T12:19:33.658Z,100082.41
2023-05-24T12:22:07.196Z,100092.91
2023-05-24T12:24:35.547Z,100079.06
2023-05-24T12:27:07.843Z,100077.16
2023-05-24T12:29:37.866Z,100084.16
2023-05-24T12:32:05.415Z,100079.72
2023-05-24T12:34:33.738Z,100072.91
2023-05-24T12:37:01.335Z,100082.16
2023-05-24T12:39:35.114Z,100083.75
2023-05-24T12:42:03.470Z,100080.88
2023-05-24T12:44:35.335Z,100083.47
2023-05-24T12:47:03.884Z,100081.63
2023-05-24T12:49:32.577Z,100078.72
2023-05-24T12:52:00.232Z,100087.56
2023-05-24T12:54:28.295Z,100092.75
2023-05-24T12:56:57.826Z,100078.84
2023-05-24T12:59:26.065Z,100077.50
2023-05-24T13:01:53.496Z,100073.41
2023-05-24T13:04:24.407Z,100068.84
2023-05-24T13:06:52.904Z,100082.16
2023-05-24T13:09:22.663Z,100080.88
2023-05-24T13:11:50.853Z,100084.25
2023-05-24T13:14:19.210Z,100081.06
2023-05-24T13:16:46.375Z,100081.38
2023-05-24T13:19:13.837Z,100091.41
2023-05-24T13:21:41.012Z,100069.81
2023-05-24T13:24:08.808Z,100075.09
2023-05-24T13:26:39.201Z,100076.94
2023-05-24T13:31:41.371Z,100069.81
2023-05-24T13:34:09.485Z,100069.28
2023-05-24T13:36:38.253Z,100058.72
2023-05-24T13:41:41.662Z,100047.69
2023-05-24T13:44:10.320Z,100056.91
2023-05-24T13:46:38.669Z,100053.47
2023-05-24T13:49:06.786Z,100051.66
2023-05-24T13:51:34.482Z,100049.25
2023-05-24T13:54:05.022Z,100040.28
2023-05-24T13:56:34.347Z,100051.91
2023-05-24T13:59:02.828Z,100042.69
2023-05-24T14:01:32.750Z,100039.22
2023-05-24T14:04:00.951Z,100042.34
2023-05-24T14:06:29.061Z,100044.19
2023-05-24T14:08:57.789Z,100030.72
2023-05-24T14:11:26.362Z,100035.91
2023-05-24T14:16:24.878Z,100045.97
2023-05-24T14:18:51.990Z,100044.44
2023-05-24T14:21:21.743Z,100033.94
2023-05-24T14:23:49.636Z,100042.38
2023-05-24T14:26:17.957Z,100046.59
2023-05-24T14:28:44.905Z,100040.31
2023-05-24T14:31:11.828Z,100041.91
2023-05-24T14:33:40.259Z,100040.31
2023-05-24T14:36:09.224Z,100039.22
2023-05-24T14:38:36.639Z,100038.19
2023-05-24T14:41:03.745Z,100026.53
2023-05-24T14:43:32.244Z,100027.63
2023-05-24T14:46:00.669Z,100029.22
2023-05-24T14:48:28.361Z,100022.09
2023-05-24T14:50:55.778Z,100027.09
2023-05-24T14:53:26.037Z,100023.69
2023-05-24T14:55:55.129Z,100022.66
2023-05-24T14:58:22.775Z,100018.16
2023-05-24T15:00:50.143Z,100008.94
2023-05-24T15:03:17.366Z,100015.50
2023-05-24T15:05:44.504Z,100022.34
2023-05-24T15:08:13.217Z,100019.16
2023-05-24T15:10:40.741Z,100019.16
2023-05-24T15:13:08.225Z,100028.63
2023-05-24T15:15:35.024Z,100016.00
2023-05-24T15:18:01.998Z,100012.81
2023-05-24T15:20:29.012Z,100013.34
2023-05-24T15:22:56.122Z,100012.28
2023-05-24T15:25:23.056Z,100012.03
2023-05-24T15:27:50.025Z,100010.75
2023-05-24T15:30:26.943Z,100009.69
2023-05-24T15:32:55.942Z,100008.63
2023-05-24T15:35:23.130Z,100013.41
2023-05-24T15:37:50.408Z,100014.38
2023-05-24T15:40:18.808Z,100011.81
2023-05-24T15:42:47.384Z,100007.56
2023-05-24T15:45:14.257Z,100009.16
2023-05-24T15:47:41.078Z,100013.09
2023-05-24T15:50:35.364Z,100006.53
2023-05-24T15:53:12.168Z,100007.06
2023-05-24T15:55:39.119Z,100012.84
2023-05-24T15:58:06.012Z,100003.91
2023-05-24T16:00:33.087Z,100007.06
2023-05-24T16:03:00.337Z,100009.47
2023-05-24T16:05:28.384Z,100004.19
2023-05-24T16:07:55.529Z,100005.53
2023-05-24T16:10:22.376Z,100002.09
2023-05-24T16:12:55.585Z,100010.25
2023-05-24T16:15:22.496Z,100014.47
2023-05-24T16:17:49.351Z,100009.19
2023-05-24T16:20:16.318Z,100015.53
2023-05-24T16:22:51.366Z,100009.22
2023-05-24T16:25:18.411Z,100021.34
2023-05-24T16:27:45.263Z,100022.66
2023-05-24T16:30:12.459Z,100021.34
2023-05-24T16:33:08.377Z,100028.69
2023-05-24T16:35:37.432Z,100027.66
2023-05-24T16:38:04.775Z,100038.72
2023-05-24T16:40:31.692Z,100033.72
2023-05-24T16:42:58.516Z,100045.56
2023-05-24T16:45:25.512Z,100034.50
2023-05-24T16:47:52.651Z,100031.34
2023-05-24T16:50:19.606Z,100043.97
2023-05-24T16:52:46.471Z,100039.78
2023-05-24T16:55:14.891Z,100040.31
2023-05-24T16:57:42.136Z,100054.50
2023-05-24T17:00:10.029Z,100052.16
2023-05-24T17:02:37.445Z,100051.06
2023-05-24T17:05:04.440Z,100058.19
2023-05-24T17:07:31.991Z,100050.50
2023-05-24T17:09:59.095Z,100058.66
2023-05-24T17:12:26.084Z,100063.66
2023-05-24T17:14:52.943Z,100059.97
2023-05-24T17:17:19.924Z,100069.16
2023-05-24T17:19:46.982Z,100070.72
2023-05-24T17:22:14.318Z,100072.28
2023-05-24T17:24:41.565Z,100082.25
2023-05-24T17:27:08.535Z,100087.25
2023-05-24T17:29:37.621Z,100086.44
2023-05-24T17:32:05.882Z,100088.22
2023-05-24T17:34:32.885Z,100094.78
2023-05-24T17:37:00.136Z,100090.31
2023-05-24T17:39:27.057Z,100087.41
2023-05-24T17:41:53.862Z,100092.91
2023-05-24T17:44:21.397Z,100101.50
2023-05-24T17:46:48.415Z,100103.88
2023-05-24T17:49:18.507Z,100113.00
2023-05-24T17:51:46.922Z,100116.22
2023-05-24T17:54:14.871Z,100118.25
2023-05-24T17:56:41.805Z,100117.38
2023-05-24T17:59:10.035Z,100121.78
2023-05-24T18:01:36.991Z,100125.97
2023-05-24T18:04:05.153Z,100131.41
2023-05-24T18:06:34.041Z,100134.84
2023-05-24T18:09:03.904Z,100130.06
2023-05-24T18:11:31.083Z,100135.31
2023-05-24T18:14:00.449Z,100130.75
2023-05-24T18:16:27.644Z,100127.53
2023-05-24T18:18:54.926Z,100132.44
2023-05-24T18:21:22.046Z,100130.84
2023-05-24T18:23:49.325Z,100139.50
2023-05-24T18:26:16.205Z,100139.66
2023-05-24T18:28:43.996Z,100149.38
2023-05-24T18:31:10.981Z,100138.84
2023-05-24T18:33:38.451Z,100148.47
2023-05-24T18:36:05.883Z,100148.44
2023-05-24T18:38:36.675Z,100149.94
2023-05-24T18:41:09.376Z,100160.31
2023-05-24T18:43:36.507Z,100173.16
2023-05-24T18:46:03.366Z,100169.72
2023-05-24T18:48:30.197Z,100173.28
2023-05-24T18:50:57.192Z,100174.34
2023-05-24T18:53:25.728Z,100184.53
2023-05-24T18:55:52.566Z,100183.75
2023-05-24T18:58:19.453Z,100174.28
2023-05-24T19:00:46.490Z,100169.94
2023-05-24T19:03:13.515Z,100176.44
2023-05-24T19:05:43.555Z,100179.25
2023-05-24T19:08:11.157Z,100179.63
2023-05-24T19:10:37.992Z,100182.19
2023-05-24T19:13:05.997Z,100182.66
2023-05-24T19:15:34.750Z,100176.81
2023-05-24T19:18:01.825Z,100176.16
2023-05-24T19:20:29.997Z,100183.47
2023-05-24T19:22:56.820Z,100182.94
2023-05-24T19:25:23.663Z,100189.66
2023-05-24T19:27:59.178Z,100193.03
2023-05-24T19:30:27.596Z,100193.94
2023-05-24T19:32:54.785Z,100191.78
2023-05-24T19:35:21.725Z,100199.34
2023-05-24T19:37:48.588Z,100201.88
2023-05-24T19:40:15.654Z,100204.50
2023-05-24T19:42:42.469Z,100204.88
2023-05-24T19:45:09.787Z,100201.69
2023-05-24T19:47:36.775Z,100207.41
2023-05-24T19:50:03.781Z,100196.03
2023-05-24T19:52:30.810Z,100198.88
2023-05-24T19:54:57.721Z,100209.94
2023-05-24T19:57:24.587Z,100212.78
2023-05-24T19:59:51.743Z,100217.72
2023-05-24T20:02:18.590Z,100215.31
2023-05-24T20:04:45.391Z,100221.00
2023-05-24T20:07:12.383Z,100213.38
2023-05-24T20:09:39.501Z,100218.63
2023-05-24T20:12:06.544Z,100225.94
2023-05-24T20:14:33.954Z,100220.34
2023-05-24T20:17:01.436Z,100225.38
2023-05-24T20:19:28.747Z,100225.75
2023-05-24T20:21:55.685Z,100220.16
2023-05-24T20:24:24.977Z,100208.88
2023-05-24T20:26:52.065Z,100211.75
2023-05-24T20:29:18.945Z,100203.31
2023-05-24T20:31:47.165Z,100214.38
2023-05-24T20:34:14.220Z,100214.59
2023-05-24T20:36:43.574Z,100215.03
2023-05-24T20:39:10.863Z,100215.03
2023-05-24T20:41:37.708Z,100207.88
2023-05-24T20:44:04.622Z,100216.78
2023-05-24T20:46:31.812Z,100220.84
2023-05-24T20:48:58.929Z,100223.59
2023-05-24T20:51:26.000Z,100229.91
2023-05-24T20:53:53.392Z,100232.41
2023-05-24T20:56:21.428Z,100242.28
2023-05-24T20:58:52.751Z,100248.56
2023-05-24T21:01:20.861Z,100247.41
2023-05-24T21:03:47.885Z,100254.13
2023-05-24T21:06:15.041Z,100258.78
2023-05-24T21:08:43.072Z,100258.94
2023-05-24T21:11:11.236Z,100250.41
2023-05-24T21:13:38.248Z,100250.28
2023-05-24T21:16:05.558Z,100255.19
2023-05-24T21:18:33.516Z,100239.91
2023-05-24T21:21:01.006Z,100239.25
2023-05-24T21:23:27.937Z,100242.31
2023-05-24T21:25:54.899Z,100241.72
2023-05-24T21:28:21.956Z,100244.78
2023-05-24T21:30:48.822Z,100246.59
2023-05-24T21:33:16.151Z,100242.66
2023-05-24T21:35:43.219Z,100234.66
2023-05-24T21:38:10.259Z,100252.41
2023-05-24T21:40:37.167Z,100247.25
2023-05-24T21:43:05.348Z,100251.34
2023-05-24T21:45:34.699Z,100242.59
2023-05-24T21:48:01.608Z,100253.50
2023-05-24T21:50:29.108Z,100252.34
2023-05-24T21:52:55.940Z,100248.78
2023-05-24T21:55:22.779Z,100251.06
2023-05-24T21:57:49.717Z,100250.34
2023-05-24T22:00:17.188Z,100255.44
2023-05-24T22:03:00.670Z,100245.88
2023-05-24T22:05:28.081Z,100253.94
2023-05-24T22:07:55.261Z,100252.56
2023-05-24T22:10:22.128Z,100259.28
2023-05-24T22:12:49.140Z,100257.84
2023-05-24T22:15:16.256Z,100249.47
2023-05-24T22:17:44.581Z,100249.31
2023-05-24T22:20:12.090Z,100248.53
2023-05-24T22:22:48.510Z,100258.59
2023-05-24T22:25:19.468Z,100253.03
2023-05-24T22:27:51.357Z,100256.28
2023-05-24T22:30:23.933Z,100254.69
2023-05-24T22:32:51.324Z,100248.66
2023-05-24T22:35:18.284Z,100254.69
2023-05-24T22:37:45.156Z,100259.53
2023-05-24T22:40:12.493Z,100251.16
2023-05-24T22:42:39.343Z,100250.78
2023-05-24T22:45:06.877Z,100246.41
2023-05-24T22:47:33.993Z,100251.09
2023-05-24T22:50:02.293Z,100253.31
2023-05-24T22:52:33.927Z,100254.19
2023-05-24T22:55:04.234Z,100245.19
2023-05-24T22:57:32.992Z,100249.41
2023-05-24T22:59:59.804Z,100253.22
2023-05-24T23:02:29.203Z,100252.22
2023-05-24T23:04:56.350Z,100248.63
2023-05-24T23:07:23.507Z,100251.41
2023-05-24T23:09:50.299Z,100245.03
2023-05-24T23:12:20.343Z,100249.69
2023-05-24T23:14:47.212Z,100257.50
2023-05-24T23:17:15.161Z,100260.56
2023-05-24T23:19:44.914Z,100266.78
2023-05-24T23:22:14.101Z,100261.41
2023-05-24T23:24:42.678Z,100253.81
2023-05-24T23:27:10.045Z,100268.66
2023-05-24T23:29:39.084Z,100268.50
2023-05-24T23:32:08.046Z,100273.97
2023-05-24T23:34:35.345Z,100264.16
2023-05-24T23:37:03.194Z,100265.78
2023-05-24T23:39:30.239Z,100272.69
2023-05-24T23:41:57.339Z,100275.28
2023-05-24T23:44:24.165Z,100275.47
2023-05-24T23:46:52.872Z,100275.47
2023-05-24T23:49:20.218Z,100274.50
2023-05-24T23:51:47.240Z,100276.91
2023-05-24T23:54:19.066Z,100276.13
2023-05-24T23:56:46.345Z,100274.09
2023-05-24T23:59:13.140Z,100279.13
